Time;durP1;ratioP1;P1;durP2;ratioP2;P2;SDS_P1;SDS_P2;PMS_P1;PMS_P2;Temp;Humidity;BMP_temperature;BMP_pressure;BME280_temperature;BME280_humidity;BME280_pressure;Samples;Min_cycle;Max_cycle;Signal;HPM_P1;HPM_P2
2023/04/17 00:02:02;;;;;;;46.20;36.00;;;;;;;7.05;100.00;99042.96;109664;1250;58932;-73
2023/04/17 00:04:29;;;;;;;48.50;37.20;;;;;;;7.06;100.00;99038.69;109678;1250;62639;-74
2023/04/17 00:06:58;;;;;;;45.80;34.90;;;;;;;7.07;100.00;99032.98;109594;1250;58970;-73
2023/04/17 00:09:24;;;;;;;46.90;36.50;;;;;;;7.05;100.00;99032.54;109645;1251;59048;-74
2023/04/17 00:11:51;;;;;;;43.20;34.00;;;;;;;7.04;100.00;99031.35;109657;1250;66440;-74
2023/04/17 00:14:18;;;;;;;42.70;33.90;;;;;;;7.06;100.00;99031.11;109656;1250;59017;-74
2023/04/17 00:16:44;;;;;;;44.80;34.20;;;;;;;7.06;100.00;99032.48;109626;1250;59048;-73
2023/04/17 00:19:11;;;;;;;45.80;34.20;;;;;;;7.07;100.00;99028.55;109599;1250;58920;-73
2023/04/17 00:21:37;;;;;;;40.80;30.60;;;;;;;7.08;100.00;99027.27;109663;1251;58961;-73
2023/04/17 00:24:04;;;;;;;40.90;30.60;;;;;;;7.08;100.00;99027.61;109520;1250;59119;-74
2023/04/17 00:26:33;;;;;;;45.90;31.30;;;;;;;7.09;100.00;99027.73;109651;1250;68984;-74
2023/04/17 00:29:00;;;;;;;46.50;32.90;;;;;;;7.08;100.00;99031.85;109646;1250;62840;-74
2023/04/17 00:31:27;;;;;;;41.50;31.00;;;;;;;7.07;100.00;99033.00;109590;1250;58955;-74
2023/04/17 00:33:53;;;;;;;37.80;28.90;;;;;;;7.05;100.00;99036.94;109652;1250;59006;-74
2023/04/17 00:36:20;;;;;;;38.80;30.00;;;;;;;7.02;100.00;99036.74;109643;1250;59599;-74
2023/04/17 00:38:46;;;;;;;34.20;29.10;;;;;;;6.99;100.00;99032.14;109673;1250;58988;-74
2023/04/17 00:41:13;;;;;;;37.20;28.90;;;;;;;6.97;100.00;99029.93;109630;1250;59067;-74
2023/04/17 00:43:39;;;;;;;37.90;29.40;;;;;;;6.95;100.00;99029.34;109634;1250;58983;-74
2023/04/17 00:46:07;;;;;;;38.70;30.00;;;;;;;6.92;100.00;99031.45;109615;1250;59049;-74
2023/04/17 00:48:36;;;;;;;41.30;30.20;;;;;;;6.88;100.00;99035.35;109521;1250;66044;-74
2023/04/17 00:51:02;;;;;;;39.70;30.10;;;;;;;6.87;100.00;99034.36;109647;1250;60173;-74
2023/04/17 00:53:30;;;;;;;39.80;30.70;;;;;;;6.85;100.00;99025.30;109625;1250;62821;-74
2023/04/17 00:55:59;;;;;;;41.70;31.50;;;;;;;6.81;100.00;99024.44;109633;1250;59331;-74
2023/04/17 00:58:26;;;;;;;42.10;31.60;;;;;;;6.75;100.00;99030.34;109662;1250;59166;-74
2023/04/17 01:00:53;;;;;;;40.60;31.50;;;;;;;6.72;100.00;99036.36;109638;1250;64830;-74
2023/04/17 01:03:20;;;;;;;44.90;31.70;;;;;;;6.72;100.00;99039.02;109661;1250;59057;-74
2023/04/17 01:05:49;;;;;;;48.20;32.40;;;;;;;6.69;100.00;99038.61;109648;1250;64055;-74
2023/04/17 01:08:17;;;;;;;36.70;30.90;;;;;;;6.66;100.00;99044.44;109506;1250;59383;-74
2023/04/17 01:10:44;;;;;;;39.70;29.30;;;;;;;6.61;100.00;99039.19;109254;1250;59085;-74
2023/04/17 01:13:11;;;;;;;39.90;31.00;;;;;;;6.54;100.00;99036.16;109665;1250;66038;-75
2023/04/17 01:15:37;;;;;;;39.20;31.60;;;;;;;6.48;100.00;99039.31;109306;1254;60088;-75
2023/04/17 01:18:05;;;;;;;38.60;29.60;;;;;;;6.40;100.00;99038.11;109628;1250;59074;-75
2023/04/17 01:20:32;;;;;;;38.80;31.70;;;;;;;6.33;100.00;99037.03;109568;1250;59019;-74
2023/04/17 01:23:00;;;;;;;38.50;29.90;;;;;;;6.27;100.00;99039.29;109632;1250;59041;-74
2023/04/17 01:25:27;;;;;;;38.40;31.10;;;;;;;6.21;100.00;99038.16;109641;1250;66051;-74
2023/04/17 01:27:54;;;;;;;36.50;30.60;;;;;;;6.16;100.00;99037.53;109636;1251;60225;-74
2023/04/17 01:30:20;;;;;;;39.30;31.50;;;;;;;6.12;100.00;99034.19;109656;1250;63024;-74
2023/04/17 01:32:47;;;;;;;39.60;31.90;;;;;;;6.07;100.00;99033.35;109573;1250;59050;-74
2023/04/17 01:35:13;;;;;;;46.60;34.40;;;;;;;6.04;100.00;99033.16;109639;1250;58974;-74
2023/04/17 01:37:40;;;;;;;47.70;35.70;;;;;;;6.03;100.00;99034.26;109608;1250;59087;-74
2023/04/17 01:40:07;;;;;;;53.60;38.30;;;;;;;6.02;100.00;99029.20;109629;1250;59020;-74
2023/04/17 01:42:33;;;;;;;46.30;35.80;;;;;;;6.01;100.00;99029.80;109321;1250;64061;-74
2023/04/17 01:45:00;;;;;;;49.20;35.50;;;;;;;5.99;100.00;99027.60;109608;1250;58977;-75
2023/04/17 01:47:27;;;;;;;50.20;35.50;;;;;;;5.97;100.00;99025.73;109616;1250;59032;-73
2023/04/17 01:49:53;;;;;;;47.40;36.60;;;;;;;5.96;100.00;99027.54;109618;1251;59038;-73
2023/04/17 01:52:19;;;;;;;46.60;33.80;;;;;;;5.94;100.00;99029.56;109712;1250;58964;-73
2023/04/17 01:54:46;;;;;;;46.10;32.60;;;;;;;5.92;100.00;99023.45;109647;1253;59038;-73
2023/04/17 01:57:12;;;;;;;45.90;32.80;;;;;;;5.91;100.00;99024.94;109585;1251;59077;-73
2023/04/17 01:59:39;;;;;;;39.80;31.10;;;;;;;5.88;100.00;99023.82;109631;1250;59080;-73
2023/04/17 02:02:05;;;;;;;33.20;28.40;;;;;;;5.83;100.00;99025.29;109671;1250;59046;-73
2023/04/17 02:04:32;;;;;;;34.00;27.80;;;;;;;5.78;100.00;99030.30;109478;1250;59626;-73
2023/04/17 02:06:58;;;;;;;38.40;29.20;;;;;;;5.72;100.00;99032.50;109629;1251;59388;-73
2023/04/17 02:09:25;;;;;;;42.70;31.10;;;;;;;5.68;100.00;99032.70;109643;1251;59081;-73
2023/04/17 02:11:52;;;;;;;40.10;31.60;;;;;;;5.64;100.00;99036.23;109606;1251;59136;-73
2023/04/17 02:14:19;;;;;;;37.80;28.30;;;;;;;5.60;100.00;99034.30;109634;1253;59802;-73
2023/04/17 02:16:46;;;;;;;39.00;30.00;;;;;;;5.56;100.00;99036.96;109586;1251;60311;-74
2023/04/17 02:19:12;;;;;;;38.90;29.90;;;;;;;5.51;100.00;99038.23;109647;1250;58944;-73
2023/04/17 02:21:38;;;;;;;38.30;30.50;;;;;;;5.47;100.00;99040.67;109600;1250;58958;-73
2023/04/17 02:24:05;;;;;;;37.90;30.00;;;;;;;5.45;100.00;99044.34;109618;1253;59104;-73
2023/04/17 02:26:32;;;;;;;42.20;33.10;;;;;;;5.43;100.00;99048.29;109637;1251;64900;-73
2023/04/17 02:28:58;;;;;;;42.60;34.40;;;;;;;5.43;100.00;99045.45;109641;1252;60113;-74
2023/04/17 02:31:25;;;;;;;44.70;34.90;;;;;;;5.45;100.00;99042.58;109616;1250;64259;-74
2023/04/17 02:33:55;;;;;;;44.10;37.90;;;;;;;5.47;100.00;99037.55;109628;1250;59274;-74
2023/04/17 02:36:21;;;;;;;46.60;39.20;;;;;;;5.50;100.00;99035.61;109636;1250;59082;-74
2023/04/17 02:38:48;;;;;;;47.10;39.40;;;;;;;5.51;100.00;99038.08;109614;1251;58981;-74
2023/04/17 02:41:14;;;;;;;43.60;36.00;;;;;;;5.50;100.00;99039.70;109624;1251;59037;-74
2023/04/17 02:43:40;;;;;;;39.10;33.10;;;;;;;5.48;100.00;99042.25;109306;1250;59140;-74
2023/04/17 02:46:07;;;;;;;40.90;32.60;;;;;;;5.43;100.00;99043.69;109631;1250;59021;-75
2023/04/17 02:48:34;;;;;;;40.10;31.40;;;;;;;5.37;100.00;99050.84;109594;1251;59073;-74
2023/04/17 02:51:00;;;;;;;34.70;28.30;;;;;;;5.31;100.00;99051.48;109637;1251;59105;-74
2023/04/17 02:53:26;;;;;;;39.30;32.50;;;;;;;5.24;100.00;99051.05;109618;1250;59277;-74
2023/04/17 02:55:53;;;;;;;39.80;31.40;;;;;;;5.20;100.00;99049.14;109593;1250;59034;-74
2023/04/17 02:58:19;;;;;;;44.80;34.30;;;;;;;5.17;100.00;99051.02;109612;1251;59032;-74
2023/04/17 03:00:46;;;;;;;39.30;33.60;;;;;;;5.15;100.00;99047.98;109675;1250;59088;-74
2023/04/17 03:03:12;;;;;;;47.20;34.90;;;;;;;5.13;100.00;99048.55;109626;1251;59042;-74
2023/04/17 03:05:39;;;;;;;46.40;36.00;;;;;;;5.13;100.00;99047.37;109610;1251;59243;-75
2023/04/17 03:08:06;;;;;;;51.80;35.80;;;;;;;5.13;100.00;99048.94;109636;1251;59058;-74
2023/04/17 03:10:32;;;;;;;41.90;33.40;;;;;;;5.13;100.00;99048.91;109605;1251;59030;-74
2023/04/17 03:12:59;;;;;;;40.10;33.60;;;;;;;5.14;100.00;99053.30;109619;1250;59192;-75
2023/04/17 03:15:25;;;;;;;43.70;37.90;;;;;;;5.15;100.00;99054.84;109629;1251;66024;-74
2023/04/17 03:17:52;;;;;;;41.00;32.90;;;;;;;5.17;100.00;99058.42;109469;1250;60121;-74
2023/04/17 03:20:18;;;;;;;40.20;32.60;;;;;;;5.20;100.00;99057.44;109575;1251;62864;-74
2023/04/17 03:22:45;;;;;;;38.30;31.30;;;;;;;5.23;100.00;99063.98;109606;1251;58973;-74
2023/04/17 03:25:11;;;;;;;44.10;36.80;;;;;;;5.26;100.00;99064.89;109532;1251;59451;-74
2023/04/17 03:27:38;;;;;;;40.30;35.20;;;;;;;5.35;100.00;99069.98;109685;1251;59236;-74
2023/04/17 03:30:05;;;;;;;42.80;36.40;;;;;;;5.44;100.00;99069.92;109596;1251;59022;-74
2023/04/17 03:32:31;;;;;;;47.90;35.70;;;;;;;5.51;100.00;99070.47;109622;1251;63979;-74
2023/04/17 03:34:58;;;;;;;45.70;35.60;;;;;;;5.57;100.00;99069.15;109602;1250;58956;-74
2023/04/17 03:37:24;;;;;;;45.20;35.70;;;;;;;5.62;100.00;99065.41;109606;1251;59106;-74
2023/04/17 03:39:51;;;;;;;41.00;36.30;;;;;;;5.64;100.00;99077.29;109655;1250;59279;-74
2023/04/17 03:42:17;;;;;;;45.40;35.90;;;;;;;5.64;100.00;99082.75;109407;1251;59015;-74
2023/04/17 03:44:44;;;;;;;41.50;35.60;;;;;;;5.61;100.00;99083.43;109594;1251;59096;-74
2023/04/17 03:47:10;;;;;;;46.10;37.70;;;;;;;5.57;100.00;99087.66;109611;1251;59041;-74
2023/04/17 03:49:37;;;;;;;44.80;38.40;;;;;;;5.57;100.00;99090.29;109666;1251;59319;-74
2023/04/17 03:52:03;;;;;;;45.60;38.10;;;;;;;5.61;100.00;99091.54;109641;1251;59067;-74
2023/04/17 03:54:34;;;;;;;42.90;38.10;;;;;;;5.65;100.00;99092.05;109628;1251;59014;-74
2023/04/17 03:57:01;;;;;;;47.50;39.80;;;;;;;5.71;100.00;99100.77;109621;1251;62884;-74
2023/04/17 03:59:30;;;;;;;43.50;37.30;;;;;;;5.78;100.00;99102.05;109545;1251;58919;-74
2023/04/17 04:01:56;;;;;;;46.30;38.60;;;;;;;5.84;100.00;99103.17;109427;1250;59007;-74
2023/04/17 04:04:23;;;;;;;42.90;37.80;;;;;;;5.92;100.00;99099.64;109635;1250;64682;-74
2023/04/17 04:06:51;;;;;;;47.30;38.50;;;;;;;6.02;100.00;99100.84;109615;1251;58995;-74
2023/04/17 04:09:18;;;;;;;49.10;40.10;;;;;;;6.08;100.00;99105.27;109609;1250;62848;-74
2023/04/17 04:11:44;;;;;;;48.70;42.20;;;;;;;6.14;100.00;99100.92;109591;1251;59013;-75
2023/04/17 04:14:11;;;;;;;47.40;40.80;;;;;;;6.23;100.00;99103.17;109366;1250;58987;-75
2023/04/17 04:16:37;;;;;;;47.90;40.00;;;;;;;6.31;100.00;99101.17;109631;1251;66063;-73
2023/04/17 04:19:03;;;;;;;47.70;39.90;;;;;;;6.41;100.00;99103.55;109592;1251;58959;-74
2023/04/17 04:21:30;;;;;;;37.50;33.50;;;;;;;6.49;100.00;99101.02;109580;1250;59065;-74
2023/04/17 04:23:56;;;;;;;44.30;36.40;;;;;;;6.58;100.00;99099.17;109361;1251;59032;-75
2023/04/17 04:26:23;;;;;;;46.20;40.10;;;;;;;6.69;100.00;99096.88;109619;1250;59041;-74
2023/04/17 04:28:49;;;;;;;37.20;31.20;;;;;;;6.81;100.00;99099.98;109619;1250;59088;-74
2023/04/17 04:31:17;;;;;;;33.90;29.00;;;;;;;6.93;100.00;99103.30;109631;1250;59161;-74
2023/04/17 04:33:44;;;;;;;32.30;28.80;;;;;;;7.05;100.00;99103.00;109619;1251;62886;-74
2023/04/17 04:36:19;;;;;;;32.40;27.70;;;;;;;7.18;100.00;99105.03;109574;1250;58922;-74
2023/04/17 04:38:48;;;;;;;34.20;27.60;;;;;;;7.28;100.00;99111.77;109645;1251;59860;-74
2023/04/17 04:41:16;;;;;;;30.70;27.10;;;;;;;7.36;100.00;99115.23;109606;1251;65052;-74
2023/04/17 04:43:43;;;;;;;30.60;27.30;;;;;;;7.45;100.00;99117.04;109482;1251;60038;-74
2023/04/17 04:46:10;;;;;;;31.40;27.10;;;;;;;7.57;100.00;99117.14;109586;1251;64044;-74
2023/04/17 04:48:36;;;;;;;30.10;26.90;;;;;;;7.72;100.00;99115.12;109612;1251;59003;-74
2023/04/17 04:51:03;;;;;;;28.00;25.00;;;;;;;7.86;100.00;99110.65;109623;1251;58922;-74
2023/04/17 04:53:29;;;;;;;31.70;26.90;;;;;;;7.97;100.00;99111.64;109692;1250;59251;-75
2023/04/17 04:55:56;;;;;;;30.40;26.40;;;;;;;8.10;100.00;99112.36;109621;1250;61473;-74
2023/04/17 04:58:22;;;;;;;32.20;26.80;;;;;;;8.23;100.00;99104.68;109640;1251;59012;-75
2023/04/17 05:00:49;;;;;;;29.50;26.30;;;;;;;8.42;100.00;99100.70;109582;1251;59320;-75
2023/04/17 05:03:15;;;;;;;27.80;24.90;;;;;;;8.55;100.00;99104.72;109571;1251;58995;-75
2023/04/17 05:05:43;;;;;;;25.90;23.20;;;;;;;8.66;100.00;99113.48;109590;1251;59319;-75
2023/04/17 05:08:09;;;;;;;28.20;25.00;;;;;;;8.74;100.00;99118.85;109657;1250;60199;-75
2023/04/17 05:10:36;;;;;;;28.90;24.60;;;;;;;8.84;100.00;99113.67;109599;1251;59001;-74
2023/04/17 05:13:02;;;;;;;28.50;25.60;;;;;;;8.95;100.00;99114.98;109574;1251;59299;-74
2023/04/17 05:15:29;;;;;;;28.00;25.00;;;;;;;9.13;100.00;99116.42;109674;1251;59039;-75
2023/04/17 05:17:55;;;;;;;26.20;23.50;;;;;;;9.36;100.00;99112.95;109362;1250;65030;-74
2023/04/17 05:20:22;;;;;;;29.40;26.40;;;;;;;9.57;100.00;99113.94;109624;1251;60237;-73
2023/04/17 05:22:48;;;;;;;31.40;28.10;;;;;;;9.76;100.00;99114.55;109652;1250;59041;-74
2023/04/17 05:25:15;;;;;;;30.40;27.20;;;;;;;9.90;100.00;99118.48;109592;1251;59046;-74
2023/04/17 05:27:42;;;;;;;28.50;25.50;;;;;;;9.96;100.00;99114.91;109590;1251;59139;-74
2023/04/17 05:30:09;;;;;;;29.80;26.50;;;;;;;9.92;100.00;99116.75;109659;1250;66003;-74
2023/04/17 05:32:35;;;;;;;29.50;26.60;;;;;;;9.92;100.00;99118.39;109505;1250;60124;-74
2023/04/17 05:35:02;;;;;;;30.30;27.30;;;;;;;10.00;100.00;99112.59;109601;1250;62824;-74
2023/04/17 05:37:29;;;;;;;29.30;26.20;;;;;;;10.09;100.00;99107.73;109568;1251;59074;-75
2023/04/17 05:39:55;;;;;;;30.80;27.60;;;;;;;10.16;100.00;99103.20;109618;1251;59191;-74
2023/04/17 05:42:21;;;;;;;29.70;26.60;;;;;;;10.22;100.00;99102.11;109604;1251;59148;-75
2023/04/17 05:44:48;;;;;;;28.10;25.20;;;;;;;10.24;100.00;99108.58;109589;1251;59541;-74
2023/04/17 05:47:14;;;;;;;29.60;26.60;;;;;;;10.26;100.00;99116.42;109599;1250;59052;-74
2023/04/17 05:49:42;;;;;;;31.20;28.00;;;;;;;10.26;100.00;99115.55;109599;1250;58888;-74
2023/04/17 05:52:09;;;;;;;31.60;28.20;;;;;;;10.27;100.00;99116.38;109608;1250;58937;-74
2023/04/17 05:54:36;;;;;;;29.70;26.60;;;;;;;10.30;100.00;99113.89;109556;1251;66022;-74
2023/04/17 05:57:02;;;;;;;32.00;28.80;;;;;;;10.30;100.00;99113.33;109617;1250;59113;-74
2023/04/17 05:59:28;;;;;;;31.40;28.20;;;;;;;10.33;100.00;99115.66;109594;1250;59330;-74
2023/04/17 06:01:55;;;;;;;30.90;27.50;;;;;;;10.36;100.00;99118.14;109558;1250;59012;-74
2023/04/17 06:04:21;;;;;;;37.10;33.30;;;;;;;10.39;100.00;99123.95;109602;1251;59148;-74
2023/04/17 06:06:48;;;;;;;34.90;30.80;;;;;;;10.41;100.00;99124.70;109607;1250;59047;-74
2023/04/17 06:09:14;;;;;;;35.00;31.30;;;;;;;10.42;100.00;99128.23;109614;1251;59021;-74
2023/04/17 06:11:42;;;;;;;37.00;32.10;;;;;;;10.41;100.00;99126.34;109591;1251;59027;-73
2023/04/17 06:14:08;;;;;;;43.20;32.50;;;;;;;10.45;100.00;99122.86;109327;1250;59061;-74
2023/04/17 06:16:38;;;;;;;36.00;32.10;;;;;;;10.53;100.00;99122.52;109634;1250;59010;-74
2023/04/17 06:19:04;;;;;;;33.90;30.30;;;;;;;10.63;100.00;99126.16;109647;1250;66038;-74
2023/04/17 06:21:31;;;;;;;33.40;27.00;;;;;;;10.71;100.00;99122.79;109620;1250;59449;-72
2023/04/17 06:23:57;;;;;;;33.10;28.40;;;;;;;10.75;100.00;99127.51;109362;1250;59094;-76
2023/04/17 06:26:24;;;;;;;32.50;28.30;;;;;;;10.76;100.00;99132.20;109620;1250;59025;-76
2023/04/17 06:28:50;;;;;;;32.80;27.70;;;;;;;10.75;100.00;99135.48;109603;1250;59147;-76
2023/04/17 06:31:17;;;;;;;35.10;29.70;;;;;;;10.75;100.00;99138.16;109578;1250;58913;-76
2023/04/17 06:33:46;;;;;;;35.80;28.30;;;;;;;10.81;100.00;99137.80;109600;1250;58984;-76
2023/04/17 06:36:12;;;;;;;31.20;27.50;;;;;;;10.84;100.00;99139.34;109570;1250;62859;-76
2023/04/17 06:38:39;;;;;;;36.60;28.00;;;;;;;10.87;100.00;99137.89;109635;1250;58976;-76
2023/04/17 06:41:06;;;;;;;29.50;25.40;;;;;;;10.90;100.00;99137.55;109604;1250;58915;-77
2023/04/17 06:43:32;;;;;;;30.20;24.30;;;;;;;10.93;100.00;99140.34;109622;1250;59182;-77
2023/04/17 06:45:59;;;;;;;33.90;27.60;;;;;;;11.01;100.00;99137.50;109622;1250;59190;-77
2023/04/17 06:48:25;;;;;;;29.90;25.70;;;;;;;11.09;100.00;99143.77;109609;1250;58979;-77
2023/04/17 06:50:52;;;;;;;31.40;25.70;;;;;;;11.15;100.00;99148.70;109600;1250;59051;-77
2023/04/17 06:53:18;;;;;;;30.70;27.30;;;;;;;11.20;100.00;99148.85;109592;1250;59084;-77
2023/04/17 06:55:45;;;;;;;29.50;26.10;;;;;;;11.26;100.00;99147.38;109622;1250;59065;-77
2023/04/17 06:58:12;;;;;;;29.50;26.30;;;;;;;11.35;100.00;99144.98;109621;1250;59416;-78
2023/04/17 07:00:38;;;;;;;30.80;26.60;;;;;;;11.45;100.00;99143.12;109590;1250;64028;-77
2023/04/17 07:03:05;;;;;;;35.00;28.40;;;;;;;11.38;100.00;99148.20;109625;1250;58915;-77
2023/04/17 07:05:31;;;;;;;31.90;26.90;;;;;;;11.35;100.00;99149.30;109635;1250;58854;-77
2023/04/17 07:07:58;;;;;;;33.00;29.40;;;;;;;11.42;100.00;99149.71;109606;1250;65012;-77
2023/04/17 07:10:24;;;;;;;33.00;29.30;;;;;;;11.66;100.00;99148.73;109642;1250;58961;-77
2023/04/17 07:12:51;;;;;;;36.40;32.50;;;;;;;11.97;100.00;99151.80;109568;1250;58985;-77
2023/04/17 07:15:17;;;;;;;27.80;24.80;;;;;;;12.20;100.00;99154.08;109616;1250;58925;-78
2023/04/17 07:17:44;;;;;;;26.40;23.00;;;;;;;12.16;100.00;99158.14;109600;1250;59079;-77
2023/04/17 07:20:11;;;;;;;26.00;21.00;;;;;;;12.03;100.00;99166.19;109589;1250;65875;-78
2023/04/17 07:22:37;;;;;;;23.70;21.00;;;;;;;11.93;100.00;99167.74;109351;1250;58996;-77
2023/04/17 07:25:05;;;;;;;24.90;21.50;;;;;;;11.88;100.00;99171.16;109577;1250;62828;-77
2023/04/17 07:27:31;;;;;;;27.70;24.60;;;;;;;11.84;100.00;99173.36;109377;1250;58977;-78
2023/04/17 07:29:58;;;;;;;26.60;23.80;;;;;;;11.80;100.00;99172.69;109646;1250;59388;-77
2023/04/17 07:32:24;;;;;;;24.90;21.80;;;;;;;11.77;100.00;99180.05;109618;1250;59020;-77
2023/04/17 07:34:51;;;;;;;27.50;24.00;;;;;;;11.65;100.00;99183.39;109600;1250;58960;-77
2023/04/17 07:37:18;;;;;;;28.50;25.10;;;;;;;11.48;100.00;99185.95;109592;1250;63310;-77
2023/04/17 07:39:48;;;;;;;31.50;27.20;;;;;;;11.34;100.00;99182.10;109609;1250;58964;-77
2023/04/17 07:42:15;;;;;;;30.90;25.40;;;;;;;11.27;100.00;99176.33;109670;1250;59270;-77
2023/04/17 07:44:41;;;;;;;31.00;27.50;;;;;;;11.27;100.00;99173.87;109655;1250;65008;-77
2023/04/17 07:47:08;;;;;;;32.30;26.20;;;;;;;11.33;100.00;99175.06;109611;1250;58955;-77
2023/04/17 07:49:34;;;;;;;27.80;24.70;;;;;;;11.42;100.00;99170.33;109591;1250;59323;-76
2023/04/17 07:52:01;;;;;;;28.40;23.90;;;;;;;11.55;100.00;99172.64;109588;1250;59052;-77
2023/04/17 07:54:27;;;;;;;26.10;23.20;;;;;;;11.76;100.00;99176.05;109630;1250;58870;-78
2023/04/17 07:56:57;;;;;;;27.80;23.30;;;;;;;12.02;100.00;99174.80;109568;1250;59042;-77
2023/04/17 07:59:23;;;;;;;25.20;22.70;;;;;;;12.27;100.00;99170.73;109593;1250;60122;-77
2023/04/17 08:01:51;;;;;;;26.00;23.30;;;;;;;12.51;100.00;99174.88;109593;1250;59005;-76
2023/04/17 08:04:17;;;;;;;26.20;23.40;;;;;;;12.82;100.00;99174.62;109640;1250;58909;-77
2023/04/17 08:06:44;;;;;;;24.80;22.20;;;;;;;13.10;100.00;99172.73;109629;1250;58993;-76
2023/04/17 08:09:10;;;;;;;24.30;21.70;;;;;;;13.33;100.00;99168.65;109612;1250;66044;-77
2023/04/17 08:11:37;;;;;;;25.00;22.20;;;;;;;13.60;100.00;99168.27;109616;1250;59023;-77
2023/04/17 08:14:04;;;;;;;25.10;21.30;;;;;;;14.08;100.00;99167.02;109574;1250;63015;-77
2023/04/17 08:16:30;;;;;;;22.30;19.90;;;;;;;14.64;100.00;99161.09;109582;1250;58901;-77
2023/04/17 08:18:57;;;;;;;22.40;20.10;;;;;;;15.06;100.00;99152.89;109633;1250;59038;-77
2023/04/17 08:21:23;;;;;;;21.70;19.60;;;;;;;15.50;100.00;99154.05;109639;1250;64848;-77
2023/04/17 08:23:50;;;;;;;21.70;19.50;;;;;;;15.92;100.00;99156.92;109520;1250;58920;-77
2023/04/17 08:26:19;;;;;;;22.00;19.70;;;;;;;16.35;100.00;99161.78;109584;1250;58934;-77
2023/04/17 08:28:45;;;;;;;22.60;19.20;;;;;;;16.66;100.00;99160.11;109595;1250;58961;-77
2023/04/17 08:31:12;;;;;;;21.30;18.60;;;;;;;16.78;98.61;99159.56;109615;1250;59018;-77
2023/04/17 08:33:39;;;;;;;18.20;16.50;;;;;;;16.83;94.29;99159.66;109590;1250;66020;-77
2023/04/17 08:36:08;;;;;;;18.30;16.70;;;;;;;16.82;94.15;99159.04;109629;1250;59002;-77
2023/04/17 08:38:35;;;;;;;20.00;18.00;;;;;;;16.74;93.13;99165.34;109594;1250;63768;-77
2023/04/17 08:41:04;;;;;;;19.70;17.60;;;;;;;16.62;91.54;99163.34;109602;1250;58979;-78
2023/04/17 08:43:34;;;;;;;19.00;17.10;;;;;;;16.38;88.53;99166.38;109565;1253;58882;-77
2023/04/17 08:46:02;;;;;;;21.70;19.40;;;;;;;16.12;88.50;99167.55;109591;1250;64731;-77
2023/04/17 08:48:29;;;;;;;20.20;18.10;;;;;;;15.95;89.38;99163.26;109609;1250;59014;-77
2023/04/17 08:50:55;;;;;;;19.60;17.70;;;;;;;15.91;90.74;99159.67;109609;1250;64119;-77
2023/04/17 08:53:22;;;;;;;20.80;18.60;;;;;;;16.05;90.38;99157.92;109530;1250;59020;-77
2023/04/17 08:55:48;;;;;;;19.00;17.00;;;;;;;16.18;90.34;99155.90;109623;1250;59001;-78
2023/04/17 08:58:16;;;;;;;17.90;16.10;;;;;;;16.30;89.05;99154.54;109624;1250;66116;-77
2023/04/17 09:00:44;;;;;;;19.30;17.50;;;;;;;16.27;87.97;99156.41;109578;1250;59039;-78
2023/04/17 09:03:12;;;;;;;17.50;15.80;;;;;;;16.28;88.26;99155.73;109488;1250;64028;-78
2023/04/17 09:05:42;;;;;;;20.90;18.70;;;;;;;16.23;87.29;99153.32;109603;1250;59318;-77
2023/04/17 09:08:13;;;;;;;20.80;18.70;;;;;;;16.23;87.39;99150.66;109509;1251;59048;-77
2023/04/17 09:10:45;;;;;;;18.80;16.90;;;;;;;16.37;86.42;99152.80;109508;1251;66061;-77
2023/04/17 09:13:13;;;;;;;16.30;14.60;;;;;;;16.32;85.30;99154.02;109497;1251;58989;-78
2023/04/17 09:15:41;;;;;;;14.00;12.50;;;;;;;16.17;82.93;99150.77;109487;1251;64101;-77
2023/04/17 09:18:26;;;;;;;13.30;12.10;;;;;;;16.07;83.33;99153.11;109553;1251;59266;-77
2023/04/17 09:20:53;;;;;;;16.20;14.60;;;;;;;16.09;84.17;99150.48;109488;1251;58875;-78
2023/04/17 09:23:21;;;;;;;15.40;13.90;;;;;;;16.11;85.11;99150.83;109293;1251;66114;-77
2023/04/17 09:26:04;;;;;;;15.80;14.10;;;;;;;16.12;85.07;99148.91;109417;1251;131480;-78
2023/04/17 09:28:34;;;;;;;15.00;13.60;;;;;;;16.00;83.93;99147.25;109478;1251;64042;-78
2023/04/17 09:31:22;;;;;;;15.40;14.00;;;;;;;15.86;84.65;99142.55;109280;1251;59106;-77
2023/04/17 09:33:56;;;;;;;15.00;13.50;;;;;;;15.88;84.86;99138.86;109515;1251;59036;-78
2023/04/17 09:36:23;;;;;;;14.50;12.90;;;;;;;15.89;85.14;99134.76;109487;1251;66013;-77
2023/04/17 09:38:50;;;;;;;14.60;13.20;;;;;;;15.90;84.77;99132.52;109301;1251;59004;-77
2023/04/17 09:41:27;;;;;;;15.40;12.30;;;;;;;15.91;85.07;99133.48;109365;1251;63167;-77
2023/04/17 09:43:59;;;;;;;15.00;13.40;;;;;;;15.84;84.59;99133.09;109470;1251;58969;-77
2023/04/17 09:46:44;;;;;;;14.60;12.90;;;;;;;15.79;85.32;99131.48;109533;1251;59008;-77
2023/04/17 09:49:35;;;;;;;13.00;11.80;;;;;;;15.89;85.53;99130.52;109492;1251;65032;-78
2023/04/17 09:52:02;;;;;;;14.60;13.20;;;;;;;16.09;84.93;99129.27;109512;1251;59578;-77
2023/04/17 09:54:30;;;;;;;15.60;13.10;;;;;;;16.21;84.95;99129.81;109492;1251;64076;-77
2023/04/17 09:56:57;;;;;;;13.60;12.20;;;;;;;16.19;84.67;99128.20;109477;1251;59071;-77
2023/04/17 09:59:25;;;;;;;14.00;12.40;;;;;;;16.11;84.39;99131.05;109480;1251;58863;-77
2023/04/17 10:01:54;;;;;;;15.60;11.40;;;;;;;15.93;83.90;99131.17;109437;1251;66046;-78
2023/04/17 10:04:21;;;;;;;14.60;12.00;;;;;;;15.66;83.91;99134.26;109485;1251;59004;-77
2023/04/17 10:06:49;;;;;;;15.00;11.40;;;;;;;15.35;85.31;99139.34;109503;1251;62890;-75
2023/04/17 10:09:15;;;;;;;13.30;11.90;;;;;;;14.98;89.38;99143.73;109445;1251;59096;-73
2023/04/17 10:11:46;;;;;;;12.80;11.50;;;;;;;14.56;95.75;99153.77;109293;1251;59030;-73
2023/04/17 10:14:25;;;;;;;13.30;11.90;;;;;;;14.14;99.62;99155.83;109514;1251;65728;-73
2023/04/17 10:16:52;;;;;;;14.70;13.10;;;;;;;13.99;100.00;99157.19;109530;1251;60270;-73
2023/04/17 10:19:31;;;;;;;15.40;13.80;;;;;;;13.99;100.00;99155.21;109548;1251;62814;-73
2023/04/17 10:22:19;;;;;;;15.90;14.20;;;;;;;14.03;100.00;99156.53;109513;1251;59041;-74
2023/04/17 10:25:11;;;;;;;14.30;13.00;;;;;;;14.08;100.00;99159.38;109572;1251;59014;-74
2023/04/17 10:27:39;;;;;;;15.50;13.90;;;;;;;13.97;100.00;99156.45;109512;1251;66047;-74
2023/04/17 10:30:11;;;;;;;15.30;13.80;;;;;;;13.85;100.00;99152.75;109479;1251;58975;-74
2023/04/17 10:33:03;;;;;;;16.00;14.40;;;;;;;13.65;100.00;99150.55;109508;1251;62843;-74
2023/04/17 10:35:33;;;;;;;17.50;15.80;;;;;;;13.44;100.00;99154.62;109489;1251;59137;-73
2023/04/17 10:38:05;;;;;;;17.50;15.90;;;;;;;13.30;100.00;99151.02;109502;1251;59045;-73
2023/04/17 10:40:34;;;;;;;20.40;18.30;;;;;;;13.22;100.00;99151.67;109483;1251;64890;-73
2023/04/17 10:43:24;;;;;;;24.30;21.70;;;;;;;13.18;100.00;99155.16;109500;1251;58985;-73
2023/04/17 10:46:00;;;;;;;20.80;18.80;;;;;;;13.05;100.00;99161.12;109505;1251;62838;-73
2023/04/17 10:48:46;;;;;;;22.70;20.40;;;;;;;12.87;100.00;99162.98;109510;1251;58963;-73
2023/04/17 10:51:39;;;;;;;25.20;22.70;;;;;;;12.61;100.00;99162.41;109511;1251;60112;-73
2023/04/17 10:54:09;;;;;;;23.50;20.40;;;;;;;12.48;100.00;99160.48;109512;1251;66057;-73
2023/04/17 10:56:45;;;;;;;27.70;24.10;;;;;;;12.49;100.00;99160.95;109487;1251;59028;-74
2023/04/17 10:59:14;;;;;;;24.90;21.80;;;;;;;12.55;100.00;99160.34;109434;1251;64078;-74
2023/04/17 11:01:46;;;;;;;22.30;19.80;;;;;;;12.64;100.00;99159.66;109537;1251;59041;-74
2023/04/17 11:04:26;;;;;;;22.60;20.20;;;;;;;12.80;100.00;99162.25;109484;1251;58858;-74
2023/04/17 11:06:54;;;;;;;23.60;21.00;;;;;;;12.95;100.00;99158.66;109470;1251;66092;-74
2023/04/17 11:09:28;;;;;;;21.90;19.80;;;;;;;13.10;100.00;99158.63;109539;1251;60136;-74
2023/04/17 11:12:00;;;;;;;22.00;19.60;;;;;;;13.28;100.00;99157.64;109518;1251;64096;-75